createdAt,value
2018-04-14T00:00:21.157Z,0.00
2018-04-14T00:01:21.135Z,0.00
2018-04-14T00:02:21.053Z,0.00
2018-04-14T00:03:21.251Z,0.00
2018-04-14T00:04:21.087Z,0.00
2018-04-14T00:05:20.970Z,0.00
2018-04-14T00:06:20.984Z,0.00
2018-04-14T00:07:20.967Z,0.00
2018-04-14T00:08:20.885Z,0.00
2018-04-14T00:09:20.971Z,0.00
2018-04-14T00:10:20.887Z,0.00
2018-04-14T00:11:20.840Z,0.00
2018-04-14T00:12:20.879Z,0.00
2018-04-14T00:13:20.849Z,0.00
2018-04-14T00:14:20.733Z,0.00
2018-04-14T00:15:20.805Z,0.00
2018-04-14T00:16:20.666Z,0.00
2018-04-14T00:17:20.721Z,0.00
2018-04-14T00:18:20.714Z,0.00
2018-04-14T00:19:20.586Z,0.00
2018-04-14T00:20:20.619Z,0.00
2018-04-14T00:21:20.661Z,0.00
2018-04-14T00:22:20.553Z,0.00
2018-04-14T00:23:20.621Z,0.00
2018-04-14T00:24:20.464Z,0.00
2018-04-14T00:25:20.471Z,0.00
2018-04-14T00:26:20.402Z,0.00
2018-04-14T00:27:20.366Z,0.00
2018-04-14T00:28:20.397Z,0.00
2018-04-14T00:29:20.498Z,0.00
2018-04-14T00:30:20.314Z,0.00
2018-04-14T00:31:20.307Z,0.00
2018-04-14T00:32:20.224Z,0.00
2018-04-14T00:33:20.319Z,0.00
2018-04-14T00:34:20.161Z,0.00
2018-04-14T00:35:20.195Z,0.00
2018-04-14T00:36:20.180Z,0.00
2018-04-14T00:37:20.071Z,0.00
2018-04-14T00:38:20.107Z,0.00
2018-04-14T00:39:20.051Z,0.00
2018-04-14T00:40:19.989Z,0.00
2018-04-14T00:41:20.057Z,0.00
2018-04-14T00:42:19.977Z,0.00
2018-04-14T00:43:19.971Z,0.00
2018-04-14T00:44:19.953Z,0.00
2018-04-14T00:45:19.890Z,0.00
2018-04-14T00:46:19.824Z,0.00
2018-04-14T00:47:19.849Z,0.00
2018-04-14T00:48:19.806Z,0.00
2018-04-14T00:49:19.840Z,0.00
2018-04-14T00:50:19.819Z,0.00
2018-04-14T00:51:19.757Z,0.00
2018-04-14T00:52:19.658Z,0.00
2018-04-14T00:53:19.744Z,0.00
2018-04-14T00:54:19.687Z,0.00
2018-04-14T00:55:19.577Z,0.00
2018-04-14T00:56:19.596Z,0.00
2018-04-14T00:57:19.510Z,0.00
2018-04-14T00:58:19.564Z,0.00
2018-04-14T00:59:19.599Z,0.00
2018-04-14T01:00:19.436Z,0.00
2018-04-14T01:01:19.513Z,0.00
2018-04-14T01:02:19.387Z,0.00
2018-04-14T01:03:19.445Z,0.00
2018-04-14T01:04:19.320Z,0.00
2018-04-14T01:05:19.346Z,0.00
2018-04-14T01:06:19.323Z,0.00
2018-04-14T01:07:19.229Z,0.00
2018-04-14T01:08:19.263Z,0.00
2018-04-14T01:09:19.373Z,0.00
2018-04-14T01:10:19.154Z,0.00
2018-04-14T01:11:19.270Z,0.00
2018-04-14T01:12:19.156Z,0.00
2018-04-14T01:13:19.098Z,0.00
2018-04-14T01:14:19.044Z,0.00
2018-04-14T01:15:19.179Z,0.00
2018-04-14T01:16:19.133Z,0.00
2018-04-14T01:17:18.965Z,0.00
2018-04-14T01:18:18.985Z,0.00
2018-04-14T01:19:18.905Z,0.00
2018-04-14T01:20:18.990Z,0.00
2018-04-14T01:21:18.934Z,0.00
2018-04-14T01:22:18.899Z,0.00
2018-04-14T01:23:18.838Z,0.00
2018-04-14T01:24:18.958Z,0.00
2018-04-14T01:25:18.728Z,0.00
2018-04-14T01:26:18.769Z,0.00
2018-04-14T01:27:18.697Z,0.00
2018-04-14T01:28:18.775Z,0.00
2018-04-14T01:29:18.678Z,0.00
2018-04-14T01:30:18.604Z,0.00
2018-04-14T01:31:18.708Z,0.00
2018-04-14T01:32:18.587Z,0.00
2018-04-14T01:33:18.585Z,0.00
2018-04-14T01:34:18.513Z,0.00
2018-04-14T01:35:18.537Z,0.00
2018-04-14T01:36:18.512Z,0.00
2018-04-14T01:37:18.492Z,0.00
2018-04-14T01:38:18.393Z,0.00
2018-04-14T01:39:18.435Z,0.00
2018-04-14T01:40:18.315Z,0.00
2018-04-14T01:41:18.334Z,0.00
2018-04-14T01:42:18.682Z,0.00
2018-04-14T01:43:18.302Z,0.00
2018-04-14T01:44:18.207Z,0.00
2018-04-14T01:45:18.186Z,0.00
2018-04-14T01:46:18.226Z,0.00
2018-04-14T01:47:18.123Z,0.00
2018-04-14T01:48:18.249Z,0.00
2018-04-14T01:49:18.078Z,0.00
2018-04-14T01:50:18.127Z,0.00
2018-04-14T01:51:18.077Z,0.00
2018-04-14T01:52:18.092Z,0.00
2018-04-14T01:53:18.002Z,0.00
2018-04-14T01:54:18.035Z,0.00
2018-04-14T01:55:17.910Z,0.00
2018-04-14T01:56:17.867Z,0.00
2018-04-14T01:57:17.949Z,0.00
2018-04-14T01:58:17.848Z,0.00
2018-04-14T01:59:17.797Z,0.00
2018-04-14T02:00:17.807Z,0.00
2018-04-14T02:01:17.799Z,0.00
2018-04-14T02:02:17.753Z,0.00
2018-04-14T02:03:17.673Z,0.00
2018-04-14T02:04:17.682Z,0.00
2018-04-14T02:05:17.690Z,0.00
2018-04-14T02:06:17.591Z,0.00
2018-04-14T02:07:17.569Z,0.00
2018-04-14T02:08:17.757Z,0.00
2018-04-14T02:09:17.508Z,0.00
2018-04-14T02:10:17.518Z,0.00
2018-04-14T02:11:17.452Z,0.00
2018-04-14T02:12:17.564Z,0.00
2018-04-14T02:13:17.427Z,0.00
2018-04-14T02:14:17.431Z,0.00
2018-04-14T02:15:17.443Z,0.00
2018-04-14T02:16:17.317Z,0.00
2018-04-14T02:17:17.353Z,0.00
2018-04-14T02:18:17.264Z,0.00
2018-04-14T02:19:17.321Z,0.00
2018-04-14T02:20:17.197Z,0.00
2018-04-14T02:21:17.170Z,0.00
2018-04-14T02:22:17.141Z,0.00
2018-04-14T02:23:17.122Z,0.00
2018-04-14T02:24:17.083Z,0.00
2018-04-14T02:25:17.060Z,0.00
2018-04-14T02:26:17.026Z,0.00
2018-04-14T02:27:17.009Z,0.00
2018-04-14T02:28:16.975Z,0.00
2018-04-14T02:29:16.946Z,0.00
2018-04-14T02:30:16.925Z,0.00
2018-04-14T02:31:16.891Z,0.00
2018-04-14T02:32:16.869Z,0.00
2018-04-14T02:33:16.846Z,0.00
2018-04-14T02:34:16.805Z,0.00
2018-04-14T02:35:16.774Z,0.00
2018-04-14T02:36:16.748Z,0.00
2018-04-14T02:37:16.719Z,0.00
2018-04-14T02:38:16.695Z,0.00
2018-04-14T02:39:16.672Z,0.00
2018-04-14T02:40:16.640Z,0.00
2018-04-14T02:41:16.623Z,0.00
2018-04-14T02:42:16.588Z,0.00
2018-04-14T02:43:16.554Z,0.00
2018-04-14T02:44:16.524Z,0.00
2018-04-14T02:45:16.497Z,0.00
2018-04-14T02:46:16.470Z,0.00
2018-04-14T02:47:16.437Z,0.00
2018-04-14T02:48:16.416Z,0.00
2018-04-14T02:49:16.389Z,0.00
2018-04-14T02:50:16.426Z,0.00
2018-04-14T02:51:16.336Z,0.00
2018-04-14T02:52:16.347Z,0.00
2018-04-14T02:53:16.299Z,0.00
2018-04-14T02:54:16.255Z,0.00
2018-04-14T02:55:16.222Z,0.00
2018-04-14T02:56:16.221Z,0.00
2018-04-14T02:57:16.175Z,0.00
2018-04-14T02:58:16.136Z,0.00
2018-04-14T02:59:16.116Z,0.00
2018-04-14T03:00:16.083Z,0.00
2018-04-14T03:01:16.053Z,0.00
2018-04-14T03:02:16.041Z,0.00
2018-04-14T03:03:15.991Z,0.00
2018-04-14T03:04:15.964Z,0.00
2018-04-14T03:05:15.969Z,0.00
2018-04-14T03:06:15.905Z,0.00
2018-04-14T03:07:15.882Z,0.00
2018-04-14T03:08:15.867Z,0.00
2018-04-14T03:09:15.832Z,0.00
2018-04-14T03:10:15.857Z,0.00
2018-04-14T03:11:15.779Z,0.00
2018-04-14T03:12:15.739Z,0.00
2018-04-14T03:13:15.721Z,0.00
2018-04-14T03:14:15.688Z,0.00
2018-04-14T03:15:15.655Z,0.00
2018-04-14T03:16:15.632Z,0.00
2018-04-14T03:17:15.612Z,0.00
2018-04-14T03:18:15.574Z,0.00
2018-04-14T03:19:15.541Z,0.00
2018-04-14T03:20:15.518Z,0.00
2018-04-14T03:21:15.490Z,0.00
2018-04-14T03:22:15.466Z,0.00
2018-04-14T03:23:15.437Z,0.00
2018-04-14T03:24:15.416Z,0.00
2018-04-14T03:25:15.380Z,0.00
2018-04-14T03:26:15.358Z,0.00
2018-04-14T03:27:15.324Z,0.00
2018-04-14T03:28:15.302Z,0.00
2018-04-14T03:29:15.266Z,0.00
2018-04-14T03:30:15.243Z,0.00
2018-04-14T03:31:15.237Z,0.00
2018-04-14T03:32:15.184Z,0.00
2018-04-14T03:33:15.149Z,0.00
2018-04-14T03:34:15.120Z,0.00
2018-04-14T03:35:15.091Z,0.00
2018-04-14T03:36:15.069Z,0.00
2018-04-14T03:37:15.040Z,0.00
2018-04-14T03:38:15.007Z,0.00
2018-04-14T03:39:14.984Z,0.00
2018-04-14T03:40:14.966Z,0.00
2018-04-14T03:41:14.928Z,0.00
2018-04-14T03:42:14.902Z,0.00
2018-04-14T03:43:14.871Z,0.00
2018-04-14T03:44:14.844Z,0.00
2018-04-14T03:45:14.816Z,0.00
2018-04-14T03:46:14.794Z,0.00
2018-04-14T03:47:14.762Z,0.00
2018-04-14T03:48:14.743Z,0.00
2018-04-14T03:49:14.705Z,0.00
2018-04-14T03:50:14.676Z,0.00
2018-04-14T03:51:14.645Z,0.00
2018-04-14T03:52:14.631Z,0.00
2018-04-14T03:53:14.615Z,0.00
2018-04-14T03:54:14.574Z,0.00
2018-04-14T03:55:14.541Z,0.00
2018-04-14T03:56:14.501Z,0.00
2018-04-14T03:57:14.477Z,0.00
2018-04-14T03:58:14.469Z,0.00
2018-04-14T03:59:14.420Z,0.00
2018-04-14T04:00:14.390Z,0.00
2018-04-14T04:01:14.418Z,0.00
2018-04-14T04:02:14.349Z,0.00
2018-04-14T04:03:14.311Z,0.00
2018-04-14T04:04:14.292Z,0.00
2018-04-14T04:05:14.255Z,0.00
2018-04-14T04:06:14.259Z,0.00
2018-04-14T04:07:14.218Z,0.00
2018-04-14T04:08:14.173Z,0.00
2018-04-14T04:09:14.146Z,0.00
2018-04-14T04:10:14.157Z,0.00
2018-04-14T04:11:14.080Z,0.00
2018-04-14T04:12:14.064Z,0.00
2018-04-14T04:13:14.032Z,4.00
2018-04-14T04:14:14.013Z,4.00
2018-04-14T04:15:13.986Z,4.00
2018-04-14T04:16:13.952Z,4.00
2018-04-14T04:17:13.915Z,4.00
2018-04-14T04:18:13.919Z,4.00
2018-04-14T04:19:13.861Z,0.00
2018-04-14T04:20:13.840Z,4.00
2018-04-14T04:21:13.862Z,4.00
2018-04-14T04:22:13.787Z,4.00
2018-04-14T04:23:13.749Z,8.00
2018-04-14T04:24:13.745Z,8.00
2018-04-14T04:25:13.700Z,8.00
2018-04-14T04:26:13.680Z,8.00
2018-04-14T04:27:13.684Z,12.00
2018-04-14T04:28:13.642Z,8.00
2018-04-14T04:29:13.585Z,12.00
2018-04-14T04:30:13.570Z,12.00
2018-04-14T04:31:13.560Z,12.00
2018-04-14T04:32:13.495Z,16.00
2018-04-14T04:33:13.476Z,16.00
2018-04-14T04:34:13.446Z,16.00
2018-04-14T04:35:13.423Z,20.00
2018-04-14T04:36:13.396Z,16.00
2018-04-14T04:37:13.366Z,16.00
2018-04-14T04:38:13.335Z,12.00
2018-04-14T04:39:13.335Z,16.00
2018-04-14T04:40:13.278Z,16.00
2018-04-14T04:41:13.247Z,20.00
2018-04-14T04:42:13.243Z,20.00
2018-04-14T04:43:13.186Z,20.00
2018-04-14T04:44:13.166Z,24.00
2018-04-14T04:45:13.143Z,28.00
2018-04-14T04:46:13.112Z,36.00
2018-04-14T04:47:13.081Z,44.00
2018-04-14T04:48:13.054Z,56.00
2018-04-14T04:49:13.022Z,64.00
2018-04-14T04:50:13.007Z,84.00
2018-04-14T04:51:12.977Z,96.00
2018-04-14T04:52:12.944Z,96.00
2018-04-14T04:53:12.922Z,88.00
2018-04-14T04:54:12.890Z,80.00
2018-04-14T04:55:12.859Z,92.00
2018-04-14T04:56:12.834Z,100.00
2018-04-14T04:57:12.807Z,112.00
2018-04-14T04:58:12.770Z,116.00
2018-04-14T04:59:12.742Z,128.00
2018-04-14T05:00:12.718Z,136.00
2018-04-14T05:01:12.688Z,132.00
2018-04-14T05:02:12.657Z,124.00
2018-04-14T05:03:12.627Z,120.00
2018-04-14T05:04:12.609Z,132.00
2018-04-14T05:05:12.622Z,148.00
2018-04-14T05:06:12.547Z,172.00
2018-04-14T05:07:12.520Z,188.00
2018-04-14T05:08:12.499Z,200.00
2018-04-14T05:09:12.466Z,208.00
2018-04-14T05:10:12.451Z,208.00
2018-04-14T05:11:12.412Z,208.00
2018-04-14T05:12:12.380Z,216.00
2018-04-14T05:13:12.352Z,228.00
2018-04-14T05:14:12.329Z,248.00
2018-04-14T05:15:12.301Z,284.00
2018-04-14T05:16:12.262Z,324.00
2018-04-14T05:17:12.250Z,384.00
2018-04-14T05:18:12.214Z,432.00
2018-04-14T05:19:12.188Z,476.00
2018-04-14T05:20:12.162Z,496.00
2018-04-14T05:21:12.124Z,512.00
2018-04-14T05:22:12.103Z,528.00
2018-04-14T05:23:12.082Z,536.00
2018-04-14T05:24:12.081Z,536.00
2018-04-14T05:25:12.022Z,572.00
2018-04-14T05:26:11.991Z,600.00
2018-04-14T05:27:11.965Z,632.00
2018-04-14T05:28:11.931Z,688.00
2018-04-14T05:29:11.911Z,732.00
2018-04-14T05:30:11.882Z,768.00
2018-04-14T05:31:11.848Z,808.00
2018-04-14T05:32:11.817Z,856.00
2018-04-14T05:33:11.786Z,864.00
2018-04-14T05:34:11.805Z,848.00
2018-04-14T05:35:11.747Z,840.00
2018-04-14T05:36:11.710Z,816.00
2018-04-14T05:37:11.770Z,764.00
2018-04-14T05:38:11.659Z,764.00
2018-04-14T05:39:11.632Z,824.00
2018-04-14T05:40:11.601Z,892.00
2018-04-14T05:41:11.568Z,952.00
2018-04-14T05:42:11.541Z,968.00
2018-04-14T05:43:11.588Z,984.00
2018-04-14T05:44:11.488Z,1036.00
2018-04-14T05:45:11.461Z,1116.00
2018-04-14T05:46:11.456Z,1188.00
2018-04-14T05:47:11.398Z,1248.00
2018-04-14T05:48:11.375Z,1268.00
2018-04-14T05:49:11.369Z,1260.00
2018-04-14T05:50:11.318Z,1272.00
2018-04-14T05:51:11.293Z,1300.00
2018-04-14T05:52:11.275Z,1356.00
2018-04-14T05:53:11.239Z,1456.00
2018-04-14T05:54:11.209Z,1548.00
2018-04-14T05:55:11.181Z,1596.00
2018-04-14T05:56:11.153Z,1652.00
2018-04-14T05:57:11.124Z,1676.00
2018-04-14T05:58:11.175Z,1748.00
2018-04-14T05:59:11.134Z,1860.00
2018-04-14T06:00:11.063Z,1936.00
2018-04-14T06:01:11.017Z,1840.00
2018-04-14T06:02:11.048Z,1648.00
2018-04-14T06:03:10.955Z,1504.00
2018-04-14T06:04:10.969Z,1576.00
2018-04-14T06:05:11.104Z,1652.00
2018-04-14T06:06:11.032Z,1792.00
2018-04-14T06:07:10.902Z,1816.00
2018-04-14T06:08:10.818Z,1804.00
2018-04-14T06:09:10.812Z,1900.00
2018-04-14T06:10:10.762Z,2048.00
2018-04-14T06:11:10.739Z,2208.00
2018-04-14T06:12:10.704Z,2336.00
2018-04-14T06:13:10.726Z,2408.00
2018-04-14T06:14:10.654Z,2428.00
2018-04-14T06:15:10.877Z,2396.00
2018-04-14T06:16:10.665Z,2388.00
2018-04-14T06:17:10.652Z,2412.00
2018-04-14T06:18:10.624Z,2536.00
2018-04-14T06:19:10.517Z,2656.00
2018-04-14T06:20:10.486Z,2784.00
2018-04-14T06:21:10.467Z,2816.00
2018-04-14T06:22:10.605Z,2808.00
2018-04-14T06:23:10.415Z,2880.00
2018-04-14T06:24:10.386Z,3060.00
2018-04-14T06:25:10.352Z,3192.00
2018-04-14T06:26:10.331Z,3196.00
2018-04-14T06:27:10.293Z,3136.00
2018-04-14T06:28:10.281Z,3160.00
2018-04-14T06:29:10.241Z,3344.00
2018-04-14T06:30:10.207Z,3364.00
2018-04-14T06:31:10.189Z,3132.00
2018-04-14T06:32:10.151Z,3052.00
2018-04-14T06:33:10.211Z,3116.00
2018-04-14T06:34:10.096Z,3152.00
2018-04-14T06:35:10.072Z,3260.00
2018-04-14T06:36:10.047Z,3284.00
2018-04-14T06:37:10.018Z,3152.00
2018-04-14T06:38:10.050Z,3120.00
2018-04-14T06:39:09.972Z,3128.00
2018-04-14T06:40:09.937Z,3004.00
2018-04-14T06:41:09.911Z,2928.00
2018-04-14T06:42:09.913Z,2868.00
2018-04-14T06:43:09.866Z,2788.00
2018-04-14T06:44:09.896Z,2848.00
2018-04-14T06:45:09.903Z,2896.00
2018-04-14T06:46:09.776Z,2776.00
2018-04-14T06:47:09.808Z,2768.00
2018-04-14T06:48:09.791Z,2852.00
2018-04-14T06:49:09.700Z,2768.00
2018-04-14T06:50:09.726Z,2948.00
2018-04-14T06:51:09.641Z,3008.00
2018-04-14T06:52:09.707Z,2928.00
2018-04-14T06:53:09.601Z,2984.00
2018-04-14T06:54:09.564Z,3108.00
2018-04-14T06:55:09.537Z,2892.00
2018-04-14T06:56:09.505Z,3024.00
2018-04-14T06:57:09.517Z,3404.00
2018-04-14T06:58:09.446Z,3044.00
2018-04-14T06:59:09.450Z,2924.00
2018-04-14T07:00:09.398Z,3440.00
2018-04-14T07:01:09.447Z,3936.00
2018-04-14T07:02:09.358Z,3428.00
2018-04-14T07:03:09.315Z,3140.00
2018-04-14T07:04:09.283Z,3476.00
2018-04-14T07:05:09.909Z,3724.00
2018-04-14T07:06:09.303Z,3772.00
2018-04-14T07:07:09.198Z,3752.00
2018-04-14T07:08:09.351Z,3620.00
2018-04-14T07:09:09.247Z,3144.00
2018-04-14T07:10:09.137Z,3356.00
2018-04-14T07:11:09.131Z,4240.00
2018-04-14T07:12:09.185Z,4492.00
2018-04-14T07:13:09.302Z,3744.00
2018-04-14T07:14:09.189Z,3476.00
2018-04-14T07:15:08.993Z,3448.00
2018-04-14T07:16:08.964Z,3944.00
2018-04-14T07:17:09.019Z,4124.00
2018-04-14T07:18:09.004Z,3516.00
2018-04-14T07:19:08.975Z,3244.00
2018-04-14T07:20:09.081Z,3696.00
2018-04-14T07:21:08.984Z,4324.00
2018-04-14T07:22:08.872Z,4472.00
2018-04-14T07:23:08.780Z,4580.00
2018-04-14T07:24:08.915Z,4852.00
2018-04-14T07:25:09.062Z,4956.00
2018-04-14T07:26:08.761Z,4628.00
2018-04-14T07:27:08.837Z,4652.00
2018-04-14T07:28:08.663Z,4884.00
2018-04-14T07:29:08.717Z,5132.00
2018-04-14T07:30:08.662Z,5348.00
2018-04-14T07:31:08.565Z,5276.00
2018-04-14T07:32:08.731Z,5204.00
2018-04-14T07:33:08.557Z,5068.00
2018-04-14T07:34:08.776Z,5116.00
2018-04-14T07:35:08.974Z,5444.00
2018-04-14T07:36:09.031Z,5664.00
2018-04-14T07:37:09.268Z,5700.00
2018-04-14T07:38:08.496Z,5712.00
2018-04-14T07:39:08.368Z,5496.00
2018-04-14T07:40:08.310Z,5528.00
2018-04-14T07:41:08.410Z,5532.00
2018-04-14T07:42:08.475Z,5452.00
2018-04-14T07:43:08.235Z,5400.00
2018-04-14T07:44:08.374Z,5164.00
2018-04-14T07:45:08.180Z,5204.00
2018-04-14T07:46:08.193Z,5524.00
2018-04-14T07:47:08.131Z,5548.00
2018-04-14T07:48:08.150Z,5608.00
2018-04-14T07:49:08.109Z,5616.00
2018-04-14T07:50:08.215Z,5220.00
2018-04-14T07:51:08.090Z,5332.00
2018-04-14T07:52:08.057Z,5568.00
2018-04-14T07:53:07.972Z,5524.00
2018-04-14T07:54:07.942Z,5656.00
2018-04-14T07:55:08.051Z,5676.00
2018-04-14T07:56:07.888Z,5684.00
2018-04-14T07:57:07.883Z,5968.00
2018-04-14T07:58:07.833Z,6176.00
2018-04-14T07:59:07.830Z,6248.00
2018-04-14T08:00:07.872Z,6212.00
2018-04-14T08:01:07.866Z,6212.00
2018-04-14T08:03:55.071Z,6476.00
2018-04-14T08:04:54.517Z,6720.00
2018-04-14T08:07:12.794Z,6280.00
2018-04-14T08:08:02.324Z,6468.00
2018-04-14T08:10:02.884Z,6248.00
2018-04-14T08:11:02.921Z,6200.00
2018-04-14T08:13:08.808Z,7196.00
2018-04-14T08:14:08.734Z,7240.00
2018-04-14T08:16:13.559Z,7104.00
2018-04-14T08:17:13.355Z,7496.00
2018-04-14T08:19:11.762Z,7884.00
2018-04-14T08:20:11.747Z,8344.00
2018-04-14T08:22:18.799Z,8508.00
2018-04-14T08:23:17.949Z,8696.00
2018-04-14T08:24:17.498Z,8480.00
2018-04-14T08:25:17.431Z,8392.00
2018-04-14T08:26:17.421Z,8520.00
2018-04-14T08:27:17.391Z,8376.00
2018-04-14T08:28:17.356Z,8728.00
2018-04-14T08:29:17.348Z,8580.00
2018-04-14T08:30:17.312Z,8572.00
2018-04-14T08:31:17.273Z,8984.00
2018-04-14T08:32:19.179Z,8928.00
2018-04-14T08:33:17.209Z,8616.00
2018-04-14T08:34:17.363Z,8372.00
2018-04-14T08:35:17.374Z,8152.00
2018-04-14T08:36:17.159Z,7852.00
2018-04-14T08:37:17.165Z,7660.00
2018-04-14T08:38:17.093Z,7340.00
2018-04-14T08:39:17.131Z,6884.00
2018-04-14T08:40:17.078Z,6824.00
2018-04-14T08:41:17.018Z,6600.00
2018-04-14T08:42:17.083Z,6336.00
2018-04-14T08:43:16.958Z,6396.00
2018-04-14T08:44:16.930Z,6612.00
2018-04-14T08:45:16.926Z,6716.00
2018-04-14T08:46:16.925Z,6644.00
2018-04-14T08:47:16.866Z,6536.00
2018-04-14T08:48:19.612Z,6532.00
2018-04-14T08:49:16.811Z,6680.00
2018-04-14T08:50:16.802Z,6900.00
2018-04-14T08:51:16.870Z,7400.00
2018-04-14T08:52:16.752Z,7680.00
2018-04-14T08:53:16.721Z,7476.00
2018-04-14T08:54:16.714Z,7540.00
2018-04-14T08:55:17.857Z,7752.00
2018-04-14T08:56:16.679Z,7836.00
2018-04-14T08:57:16.604Z,7580.00
2018-04-14T08:58:16.604Z,7328.00
2018-04-14T08:59:16.557Z,7304.00
2018-04-14T09:00:16.597Z,7772.00
2018-04-14T09:01:16.654Z,8056.00
2018-04-14T09:02:16.769Z,8132.00
2018-04-14T09:03:16.471Z,8280.00
2018-04-14T09:04:16.440Z,8220.00
2018-04-14T09:05:16.477Z,8196.00
2018-04-14T09:06:16.385Z,8684.00
2018-04-14T09:07:16.355Z,8704.00
2018-04-14T09:08:16.571Z,8756.00
2018-04-14T09:09:16.298Z,9024.00
2018-04-14T09:10:16.356Z,8684.00
2018-04-14T09:11:16.299Z,8660.00
2018-04-14T09:12:16.378Z,8452.00
2018-04-14T09:13:16.337Z,8292.00
2018-04-14T09:14:16.225Z,8616.00
2018-04-14T09:15:16.170Z,8536.00
2018-04-14T09:16:16.335Z,8720.00
2018-04-14T09:17:16.133Z,8620.00
2018-04-14T09:18:16.146Z,8736.00
2018-04-14T09:19:17.133Z,8860.00
2018-04-14T09:20:16.146Z,8984.00
2018-04-14T09:21:16.057Z,8892.00
2018-04-14T09:22:16.056Z,8980.00
2018-04-14T09:23:15.943Z,8784.00
2018-04-14T09:24:15.990Z,8976.00
2018-04-14T09:25:15.905Z,8896.00
2018-04-14T09:26:15.942Z,9140.00
2018-04-14T09:27:15.851Z,9340.00
2018-04-14T09:28:15.822Z,9284.00
2018-04-14T09:29:15.808Z,9488.00
2018-04-14T09:30:15.840Z,9352.00
2018-04-14T09:31:15.800Z,9580.00
2018-04-14T09:32:15.867Z,8904.00
2018-04-14T09:33:15.767Z,8776.00
2018-04-14T09:34:15.777Z,8812.00
2018-04-14T09:35:15.664Z,8992.00
2018-04-14T09:36:15.626Z,9448.00
2018-04-14T09:37:15.601Z,9708.00
2018-04-14T09:38:15.653Z,9724.00
2018-04-14T09:39:15.712Z,9568.00
2018-04-14T09:40:15.526Z,9536.00
2018-04-14T09:41:15.520Z,9328.00
2018-04-14T09:42:15.537Z,9476.00
2018-04-14T09:43:15.538Z,9720.00
2018-04-14T09:44:15.418Z,9920.00
2018-04-14T09:45:15.514Z,9524.00
2018-04-14T09:46:15.432Z,9428.00
2018-04-14T09:47:15.349Z,9396.00
2018-04-14T09:48:15.328Z,9524.00
2018-04-14T09:49:15.310Z,9256.00
2018-04-14T09:50:15.293Z,8908.00
2018-04-14T09:51:15.252Z,8656.00
2018-04-14T09:52:15.249Z,8520.00
2018-04-14T09:53:15.352Z,8684.00
2018-04-14T09:54:16.271Z,9088.00
2018-04-14T09:55:15.145Z,10036.00
2018-04-14T09:56:15.159Z,10932.00
2018-04-14T09:57:15.100Z,11200.00
2018-04-14T09:58:15.072Z,10108.00
2018-04-14T09:59:15.055Z,9680.00
2018-04-14T10:00:15.023Z,9532.00
2018-04-14T10:01:14.997Z,10128.00
2018-04-14T10:02:15.040Z,10212.00
2018-04-14T10:03:14.977Z,10624.00
2018-04-14T10:04:14.926Z,10472.00
2018-04-14T10:05:14.910Z,9816.00
2018-04-14T10:06:14.915Z,9036.00
2018-04-14T10:07:14.854Z,8464.00
2018-04-14T10:08:14.863Z,8920.00
2018-04-14T10:09:14.879Z,9460.00
2018-04-14T10:10:14.910Z,9564.00
2018-04-14T10:11:14.800Z,9420.00
2018-04-14T10:12:14.733Z,9308.00
2018-04-14T10:13:14.715Z,8688.00
2018-04-14T10:14:14.917Z,7752.00
2018-04-14T10:15:14.660Z,7412.00
2018-04-14T10:16:14.660Z,7592.00
2018-04-14T10:17:14.615Z,7776.00
2018-04-14T10:18:14.652Z,7796.00
2018-04-14T10:19:14.565Z,7120.00
2018-04-14T10:20:16.196Z,6652.00
2018-04-14T10:21:16.161Z,6700.00
2018-04-14T10:22:14.536Z,5976.00
2018-04-14T10:23:14.556Z,6008.00
2018-04-14T10:24:14.489Z,6060.00
2018-04-14T10:25:16.365Z,6136.00
2018-04-14T10:26:14.468Z,6944.00
2018-04-14T10:27:14.402Z,8060.00
2018-04-14T10:28:14.682Z,8996.00
2018-04-14T10:29:14.341Z,9464.00
2018-04-14T10:30:14.319Z,10064.00
2018-04-14T10:31:14.375Z,10512.00
2018-04-14T10:32:14.266Z,10660.00
2018-04-14T10:33:14.230Z,10776.00
2018-04-14T10:34:14.332Z,10840.00
2018-04-14T10:35:14.174Z,10308.00
2018-04-14T10:36:16.361Z,9584.00
2018-04-14T10:37:14.175Z,9420.00
2018-04-14T10:38:14.162Z,9804.00
2018-04-14T10:39:14.081Z,9636.00
2018-04-14T10:40:14.047Z,10064.00
2018-04-14T10:41:14.321Z,10276.00
2018-04-14T10:42:14.077Z,10032.00
2018-04-14T10:43:14.596Z,9796.00
2018-04-14T10:44:15.703Z,9704.00
2018-04-14T10:45:13.998Z,9388.00
2018-04-14T10:46:15.642Z,9236.00
2018-04-14T10:47:13.900Z,9316.00
2018-04-14T10:48:13.923Z,9608.00
2018-04-14T10:49:13.837Z,9844.00
2018-04-14T10:50:13.805Z,10484.00
2018-04-14T10:51:13.861Z,11168.00
2018-04-14T10:52:13.759Z,10812.00
2018-04-14T10:53:13.797Z,10556.00
2018-04-14T10:54:13.754Z,9524.00
2018-04-14T10:55:13.688Z,8488.00
2018-04-14T10:56:13.691Z,8456.00
2018-04-14T10:57:13.692Z,11068.00
2018-04-14T10:58:13.628Z,9068.00
2018-04-14T10:59:15.198Z,8260.00
2018-04-14T11:00:15.142Z,6936.00
2018-04-14T11:01:13.660Z,7956.00
2018-04-14T11:02:13.524Z,9008.00
2018-04-14T11:03:13.496Z,8524.00
2018-04-14T11:04:13.551Z,6504.00
2018-04-14T11:05:13.452Z,5576.00
2018-04-14T11:06:13.423Z,5112.00
2018-04-14T11:07:13.491Z,5400.00
2018-04-14T11:08:15.295Z,5688.00
2018-04-14T11:09:13.356Z,5908.00
2018-04-14T11:10:13.348Z,6108.00
2018-04-14T11:11:13.336Z,6344.00
2018-04-14T11:12:16.144Z,6772.00
2018-04-14T11:13:13.263Z,7392.00
2018-04-14T11:14:13.311Z,8184.00
2018-04-14T11:15:13.213Z,8884.00
2018-04-14T11:16:13.185Z,9620.00
2018-04-14T11:17:13.162Z,10176.00
2018-04-14T11:18:13.131Z,10968.00
2018-04-14T11:19:13.222Z,12632.00
2018-04-14T11:20:13.083Z,13684.00
2018-04-14T11:21:13.119Z,14224.00
2018-04-14T11:22:14.678Z,14240.00
2018-04-14T11:23:13.020Z,14128.00
2018-04-14T11:24:13.062Z,13388.00
2018-04-14T11:25:15.690Z,13172.00
2018-04-14T11:26:12.951Z,13724.00
2018-04-14T11:27:12.942Z,14100.00
2018-04-14T11:28:12.985Z,13964.00
2018-04-14T11:29:12.873Z,13928.00
2018-04-14T11:30:12.935Z,14028.00
2018-04-14T11:31:12.987Z,13960.00
2018-04-14T11:32:12.807Z,13968.00
2018-04-14T11:33:14.702Z,13712.00
2018-04-14T11:34:12.895Z,13476.00
2018-04-14T11:35:12.782Z,12808.00
2018-04-14T11:36:12.800Z,11048.00
2018-04-14T11:37:12.693Z,10784.00
2018-04-14T11:38:12.752Z,10876.00
2018-04-14T11:39:12.651Z,11216.00
2018-04-14T11:40:12.639Z,11432.00
2018-04-14T11:41:12.714Z,12024.00
2018-04-14T11:42:15.189Z,12300.00
2018-04-14T11:43:12.564Z,11948.00
2018-04-14T11:44:15.155Z,12388.00
2018-04-14T11:45:12.574Z,12260.00
2018-04-14T11:46:12.495Z,12876.00
2018-04-14T11:47:12.596Z,12960.00
2018-04-14T11:48:12.454Z,13072.00
2018-04-14T11:49:12.583Z,12684.00
2018-04-14T11:50:12.494Z,11820.00
2018-04-14T11:51:12.639Z,11816.00
2018-04-14T11:52:12.374Z,10464.00
2018-04-14T11:53:12.343Z,10928.00
2018-04-14T11:54:12.401Z,8764.00
2018-04-14T11:55:15.161Z,8656.00
2018-04-14T11:56:12.361Z,9644.00
2018-04-14T11:57:12.272Z,9672.00
2018-04-14T11:58:12.247Z,9032.00
2018-04-14T11:59:12.225Z,9648.00
2018-04-14T12:00:14.181Z,10172.00
2018-04-14T12:01:12.185Z,9800.00
2018-04-14T12:02:12.157Z,9804.00
2018-04-14T12:03:12.159Z,10052.00
2018-04-14T12:04:12.128Z,9776.00
2018-04-14T12:05:12.169Z,9164.00
2018-04-14T12:06:12.128Z,8808.00
2018-04-14T12:07:12.055Z,10944.00
2018-04-14T12:08:12.032Z,9624.00
2018-04-14T12:09:12.106Z,8576.00
2018-04-14T12:10:12.050Z,8608.00
2018-04-14T12:11:11.983Z,8628.00
2018-04-14T12:12:11.987Z,9216.00
2018-04-14T12:13:11.922Z,8908.00
2018-04-14T12:14:11.898Z,8664.00
2018-04-14T12:15:11.884Z,9028.00
2018-04-14T12:16:11.852Z,9516.00
2018-04-14T12:17:11.833Z,10048.00
2018-04-14T12:18:11.813Z,11700.00
2018-04-14T12:19:11.793Z,10804.00
2018-04-14T12:20:11.788Z,12604.00
2018-04-14T12:21:11.767Z,11632.00
2018-04-14T12:22:11.784Z,12540.00
2018-04-14T12:23:11.739Z,12776.00
2018-04-14T12:24:11.682Z,12588.00
2018-04-14T12:25:11.697Z,12584.00
2018-04-14T12:26:11.629Z,12616.00
2018-04-14T12:27:11.617Z,12692.00
2018-04-14T12:28:11.612Z,12988.00
2018-04-14T12:29:11.613Z,12920.00
2018-04-14T12:30:11.551Z,12884.00
2018-04-14T12:31:11.540Z,12792.00
2018-04-14T12:32:11.524Z,13692.00
2018-04-14T12:33:11.496Z,14036.00
2018-04-14T12:34:11.481Z,13836.00
2018-04-14T12:35:11.491Z,13296.00
2018-04-14T12:36:11.484Z,12668.00
2018-04-14T12:37:11.424Z,11224.00
2018-04-14T12:38:11.497Z,11216.00